createdAt,value
2022-09-17T00:01:30.822Z,94136.55
2022-09-17T00:03:57.142Z,94119.89
2022-09-17T00:06:23.511Z,94131.86
2022-09-17T00:08:49.864Z,94124.58
2022-09-17T00:11:16.254Z,94124.58
2022-09-17T00:13:42.614Z,94122.81
2022-09-17T00:16:09.000Z,94121.52
2022-09-17T00:18:35.330Z,94113.43
2022-09-17T00:21:01.690Z,94102.28
2022-09-17T00:23:28.046Z,94104.08
2022-09-17T00:25:54.410Z,94104.86
2022-09-17T00:28:20.761Z,94108.43
2022-09-17T00:30:47.123Z,94095.65
2022-09-17T00:33:13.486Z,94093.88
2022-09-17T00:35:39.872Z,94095.17
2022-09-17T00:38:06.229Z,94090.01
2022-09-17T00:40:32.648Z,94094.36
2022-09-17T00:42:58.922Z,94097.62
2022-09-17T00:45:25.268Z,94091.77
2022-09-17T00:47:51.612Z,94094.84
2022-09-17T00:50:17.949Z,94093.41
2022-09-17T00:52:44.286Z,94093.07
2022-09-17T00:55:11.866Z,94101.50
2022-09-17T00:57:36.974Z,94125.23
2022-09-17T01:00:03.323Z,94106.80
2022-09-17T01:02:29.746Z,94107.75
2022-09-17T01:04:56.043Z,94133.45
2022-09-17T01:07:22.417Z,94111.63
2022-09-17T01:09:48.790Z,94130.39
2022-09-17T01:12:15.129Z,94126.31
2022-09-17T01:14:41.471Z,94105.34
2022-09-17T01:17:07.799Z,94120.36
2022-09-17T01:19:34.143Z,94090.66
2022-09-17T01:22:00.478Z,94084.67
2022-09-17T01:24:26.821Z,94093.23
2022-09-17T01:26:53.186Z,94107.92
2022-09-17T01:29:19.530Z,94094.19
2022-09-17T01:31:45.891Z,94104.36
2022-09-17T01:34:12.271Z,94098.54
2022-09-17T01:36:38.611Z,94113.56
2022-09-17T01:39:04.956Z,94089.67
2022-09-17T01:41:31.293Z,94101.60
2022-09-17T01:43:57.631Z,94104.19
2022-09-17T01:46:23.982Z,94101.47
2022-09-17T01:48:50.306Z,94115.20
2022-09-17T01:51:16.639Z,94106.30
2022-09-17T01:53:42.972Z,94094.50
2022-09-17T01:56:09.344Z,94078.52
2022-09-17T01:58:35.684Z,94055.89
2022-09-17T02:01:02.096Z,94041.54
2022-09-17T02:03:28.395Z,94033.45
2022-09-17T02:05:54.738Z,94025.23
2022-09-17T02:08:21.075Z,94025.23
2022-09-17T02:10:47.417Z,94057.38
2022-09-17T02:13:13.758Z,94054.80
2022-09-17T02:15:40.094Z,94029.10
2022-09-17T02:18:06.430Z,94030.87
2022-09-17T02:20:32.775Z,94035.89
2022-09-17T02:22:59.108Z,94022.50
2022-09-17T02:25:25.482Z,94022.64
2022-09-17T02:27:51.817Z,93975.50
2022-09-17T02:30:18.158Z,93988.25
2022-09-17T02:32:44.498Z,93995.69
2022-09-17T02:35:10.836Z,93950.48
2022-09-17T02:37:37.173Z,93931.09
2022-09-17T02:40:03.588Z,93936.42
2022-09-17T02:42:29.855Z,93912.84
2022-09-17T02:44:56.192Z,93910.73
2022-09-17T02:47:22.528Z,93937.23
2022-09-17T02:49:48.870Z,93947.09
2022-09-17T02:52:15.203Z,93974.05
2022-09-17T02:54:41.545Z,93962.89
2022-09-17T02:57:07.876Z,93982.27
2022-09-17T02:59:34.220Z,93978.90
2022-09-17T03:02:00.629Z,93955.80
2022-09-17T03:04:26.946Z,93987.13
2022-09-17T03:06:53.269Z,93981.96
2022-09-17T03:09:19.613Z,93972.58
2022-09-17T03:11:45.947Z,93963.06
2022-09-17T03:16:54.552Z,93946.11
2022-09-17T03:19:20.890Z,93946.75
2022-09-17T03:21:47.229Z,93938.67
2022-09-17T03:24:13.562Z,93930.45
2022-09-17T03:26:39.916Z,93918.00
2022-09-17T03:29:06.239Z,93936.09
2022-09-17T03:31:32.677Z,93935.27
2022-09-17T03:33:58.913Z,93933.98
2022-09-17T03:36:25.258Z,93933.98
2022-09-17T03:38:51.625Z,93921.58
2022-09-17T03:41:17.978Z,93921.58
2022-09-17T03:43:44.347Z,93928.34
2022-09-17T03:46:10.703Z,93933.02
2022-09-17T03:48:36.997Z,93928.03
2022-09-17T03:51:03.330Z,93917.84
2022-09-17T03:53:29.665Z,93903.16
2022-09-17T03:55:56.005Z,93901.39
2022-09-17T03:58:22.342Z,93909.62
2022-09-17T04:00:48.690Z,93912.20
2022-09-17T04:03:15.046Z,93925.11
2022-09-17T04:05:41.391Z,93937.38
2022-09-17T04:08:07.728Z,93916.72
2022-09-17T04:10:34.072Z,93928.65
2022-09-17T04:13:00.402Z,93938.03
2022-09-17T04:15:26.749Z,93940.61
2022-09-17T04:17:53.080Z,93941.09
2022-09-17T04:20:19.480Z,93940.61
2022-09-17T04:22:45.811Z,93943.67
2022-09-17T04:25:12.155Z,93957.06
2022-09-17T04:27:38.489Z,93979.69
2022-09-17T04:30:04.826Z,93992.27
2022-09-17T04:32:31.165Z,94035.87
2022-09-17T04:34:57.501Z,94010.18
2022-09-17T04:37:23.832Z,94041.17
2022-09-17T04:39:50.221Z,94032.13
2022-09-17T04:42:16.507Z,94036.18
2022-09-17T04:44:42.856Z,94058.30
2022-09-17T04:47:09.190Z,94046.03
2022-09-17T04:49:35.561Z,94061.19
2022-09-17T04:52:01.893Z,94083.31
2022-09-17T04:54:28.236Z,94095.41
2022-09-17T04:56:54.570Z,94101.87
2022-09-17T04:59:20.911Z,94090.42
2022-09-17T05:01:47.372Z,94111.73
2022-09-17T05:04:13.623Z,94104.63
2022-09-17T05:06:39.963Z,94115.30
2022-09-17T05:09:06.303Z,94111.42
2022-09-17T05:11:32.648Z,94095.72
2022-09-17T05:13:58.986Z,94102.82
2022-09-17T05:16:25.366Z,94098.47
2022-09-17T05:18:51.666Z,94101.53
2022-09-17T05:21:17.994Z,94103.61
2022-09-17T05:23:44.333Z,94100.88
2022-09-17T05:26:10.675Z,94076.83
2022-09-17T05:28:37.018Z,94061.33
2022-09-17T05:31:03.400Z,94058.58
2022-09-17T05:33:29.698Z,94067.41
2022-09-17T05:35:56.024Z,94066.62
2022-09-17T05:38:24.576Z,94072.10
2022-09-17T05:40:50.917Z,94072.10
2022-09-17T05:43:17.286Z,94074.52
2022-09-17T05:45:43.620Z,94080.16
2022-09-17T06:54:14.238Z,94150.02
2022-09-17T06:56:40.603Z,94141.56
2022-09-17T06:59:06.945Z,94129.18
2022-09-17T07:01:33.365Z,94137.48
2022-09-17T07:03:59.639Z,94139.17
2022-09-17T07:06:25.973Z,94111.59
2022-09-17T07:08:52.311Z,94108.45
2022-09-17T07:11:18.677Z,94108.45
2022-09-17T07:13:45.019Z,94073.77
2022-09-17T07:16:11.430Z,94041.96
2022-09-17T07:18:37.695Z,94041.96
2022-09-17T07:21:04.065Z,94049.84
2022-09-17T07:23:30.402Z,94055.80
2022-09-17T07:25:56.741Z,94057.11
2022-09-17T07:28:23.083Z,94057.11
2022-09-17T07:30:49.450Z,94055.01
2022-09-17T07:33:15.761Z,94066.80
2022-09-17T07:35:42.138Z,94045.36
2022-09-17T07:38:08.592Z,94045.36
2022-09-17T07:40:34.958Z,94058.44
2022-09-17T07:43:01.259Z,94050.02
2022-09-17T07:45:27.595Z,94051.95
2022-09-17T07:47:53.935Z,94049.84
2022-09-17T07:50:20.306Z,94054.19
2022-09-17T07:52:46.636Z,94042.58
2022-09-17T07:55:13.004Z,94037.41
2022-09-17T07:57:39.340Z,94033.06
2022-09-17T08:00:05.670Z,94026.59
2022-09-17T08:02:32.128Z,94033.06
2022-09-17T08:04:58.345Z,94030.81
2022-09-17T08:07:25.732Z,94019.83
2022-09-17T08:09:52.067Z,94029.21
2022-09-17T08:12:18.411Z,94039.72
2022-09-17T08:14:44.740Z,94033.94
2022-09-17T08:17:11.080Z,94008.77
2022-09-17T08:19:37.407Z,94010.06
2022-09-17T08:22:03.754Z,94012.12
2022-09-17T08:24:30.083Z,94006.64
2022-09-17T08:26:56.452Z,94006.19
2022-09-17T08:29:22.827Z,93995.52
2022-09-17T08:31:49.217Z,94004.88
2022-09-17T08:34:15.514Z,94002.95
2022-09-17T08:36:41.857Z,93996.67
2022-09-17T08:39:08.195Z,94008.13
2022-09-17T08:41:34.581Z,94000.85
2022-09-17T08:44:00.915Z,93989.39
2022-09-17T08:46:27.266Z,93994.25
2022-09-17T08:48:53.582Z,94007.81
2022-09-17T08:51:19.923Z,93990.88
2022-09-17T08:53:46.357Z,93994.28
2022-09-17T09:14:54.927Z,93999.20
2022-09-17T09:17:21.326Z,94013.94
2022-09-17T09:19:47.671Z,94010.06
2022-09-17T09:22:14.004Z,94010.06
2022-09-17T09:24:40.341Z,94020.42
2022-09-17T09:27:06.699Z,94027.36
2022-09-17T09:29:33.040Z,94037.38
2022-09-17T09:31:59.379Z,94037.38
2022-09-17T09:34:25.724Z,94061.45
2022-09-17T09:36:52.055Z,94064.68
2022-09-17T09:39:18.401Z,94058.56
2022-09-17T09:41:44.732Z,94071.48
2022-09-17T09:44:11.086Z,94059.52
2022-09-17T09:46:37.478Z,94070.19
2022-09-17T09:49:03.780Z,94080.83
2022-09-17T09:51:30.113Z,94077.59
2022-09-17T09:53:56.451Z,94074.06
2022-09-17T09:56:22.785Z,94085.83
2022-09-17T09:58:49.135Z,94087.45
2022-09-17T10:01:15.535Z,94093.58
2022-09-17T10:03:41.813Z,94099.08
2022-09-17T10:06:08.163Z,94110.84
2022-09-17T10:08:34.500Z,94094.02
2022-09-17T10:11:00.845Z,94078.52
2022-09-17T10:13:27.181Z,94060.12
2022-09-17T10:15:53.575Z,94023.63
2022-09-17T10:18:19.866Z,94001.98
2022-09-17T10:20:46.204Z,94015.71
2022-09-17T10:23:12.547Z,94025.73
2022-09-17T10:25:38.887Z,93995.86
2022-09-17T10:28:05.224Z,93978.59
2022-09-17T10:30:31.564Z,93988.41
2022-09-17T10:32:57.906Z,93976.62
2022-09-17T10:35:24.236Z,93982.61
2022-09-17T10:37:50.581Z,93969.35
2022-09-17T10:40:16.988Z,93971.45
2022-09-17T10:42:43.298Z,93975.81
2022-09-17T10:45:09.633Z,93959.36
2022-09-17T10:47:35.977Z,93947.73
2022-09-17T10:50:04.385Z,93933.36
2022-09-17T10:52:28.663Z,93897.34
2022-09-17T10:54:55.026Z,93901.55
2022-09-17T10:57:21.372Z,93896.86
2022-09-17T10:59:47.703Z,93893.80
2022-09-17T11:02:14.249Z,93896.86
2022-09-17T11:04:40.378Z,93903.48
2022-09-17T11:07:06.724Z,93895.59
2022-09-17T11:09:33.059Z,93886.22
2022-09-17T11:11:59.407Z,93896.07
2022-09-17T11:14:25.737Z,93902.22
2022-09-17T11:16:52.070Z,93909.80
2022-09-17T11:19:18.411Z,93925.13
2022-09-17T11:21:44.750Z,93906.06
2022-09-17T11:24:11.150Z,93928.36
2022-09-17T11:26:37.488Z,93927.91
2022-09-17T11:29:03.824Z,93914.17
2022-09-17T11:31:30.210Z,93916.42
2022-09-17T11:33:56.504Z,93919.34
2022-09-17T11:36:22.843Z,93914.80
2022-09-17T11:38:49.221Z,93919.48
2022-09-17T11:41:15.526Z,93931.12
2022-09-17T11:43:41.865Z,93955.02
2022-09-17T11:46:08.253Z,93973.75
2022-09-17T11:48:34.547Z,93958.39
2022-09-17T11:51:00.888Z,93945.98
2022-09-17T11:53:27.222Z,93939.36
2022-09-17T11:55:53.597Z,93940.17
2022-09-17T11:58:19.925Z,93954.38
2022-09-17T12:00:46.265Z,93934.19
2022-09-17T12:03:12.657Z,93927.59
2022-09-17T12:05:38.941Z,93937.92
2022-09-17T12:08:05.278Z,93931.61
2022-09-17T12:10:31.621Z,93942.28
2022-09-17T12:12:57.953Z,93936.45
2022-09-17T12:15:24.300Z,93932.75
2022-09-17T12:17:50.689Z,93934.19
2022-09-17T12:20:17.025Z,93934.21
2022-09-17T12:22:43.369Z,93932.56
2022-09-17T12:25:09.709Z,93936.44
2022-09-17T12:27:36.042Z,93941.94
2022-09-17T12:30:02.396Z,93944.38
2022-09-17T12:32:28.756Z,93934.19
2022-09-17T12:34:55.094Z,93928.69
2022-09-17T12:37:21.424Z,93924.81
2022-09-17T12:39:47.767Z,93921.92
2022-09-17T12:42:14.105Z,93926.75
2022-09-17T12:44:40.448Z,93911.91
2022-09-17T12:47:06.791Z,93913.50
2022-09-17T12:49:33.160Z,93907.86
2022-09-17T12:51:59.490Z,93898.67
2022-09-17T12:54:25.833Z,93896.41
2022-09-17T12:56:52.168Z,93911.61
2022-09-17T12:59:18.516Z,93900.27
2022-09-17T13:01:44.947Z,93888.48
2022-09-17T13:04:11.225Z,93883.98
2022-09-17T13:06:37.592Z,93883.98
2022-09-17T13:09:03.926Z,93899.97
2022-09-17T13:11:30.260Z,93879.80
2022-09-17T13:13:56.608Z,93871.55
2022-09-17T13:16:22.982Z,93879.16
2022-09-17T13:19:05.712Z,93887.06
2022-09-17T13:21:15.630Z,93894.14
2022-09-17T13:23:41.975Z,93894.82
2022-09-17T13:26:08.340Z,93868.16
2022-09-17T13:28:34.724Z,93871.55
2022-09-17T13:31:01.107Z,93877.67
2022-09-17T13:33:27.401Z,93855.89
2022-09-17T13:35:53.748Z,93863.47
2022-09-17T13:38:23.089Z,93855.72
2022-09-17T13:40:46.420Z,93841.83
2022-09-17T13:43:12.759Z,93835.23
2022-09-17T13:45:39.093Z,93832.64
2022-09-17T13:48:05.429Z,93830.06
2022-09-17T13:50:31.766Z,93821.50
2022-09-17T13:52:58.108Z,93806.63
2022-09-17T13:55:24.448Z,93782.42
2022-09-17T13:57:50.821Z,93781.78
2022-09-17T14:00:17.152Z,93779.69
2022-09-17T14:02:43.541Z,93772.56
2022-09-17T14:05:09.847Z,93769.02
2022-09-17T14:07:36.230Z,93752.38
2022-09-17T14:10:02.564Z,93754.50
2022-09-17T14:12:28.901Z,93763.23
2022-09-17T14:14:55.236Z,93754.83
2022-09-17T14:17:21.582Z,93762.72
2022-09-17T14:19:51.284Z,93775.16
2022-09-17T14:22:14.265Z,93777.74
2022-09-17T14:24:40.600Z,93773.72
2022-09-17T14:27:06.944Z,93764.83
2022-09-17T14:29:33.314Z,93762.42
2022-09-17T14:31:59.659Z,93762.24
2022-09-17T14:34:25.987Z,93761.13
2022-09-17T14:36:52.337Z,93762.42
2022-09-17T14:39:18.667Z,93768.40
2022-09-17T14:41:45.014Z,93762.90
2022-09-17T14:44:11.347Z,93747.40
2022-09-17T14:46:37.767Z,93722.86
2022-09-17T14:49:04.059Z,93692.48
2022-09-17T14:51:30.401Z,93697.17
2022-09-17T14:53:56.729Z,93710.56
2022-09-17T14:56:23.071Z,93714.30
2022-09-17T14:58:49.406Z,93723.48
2022-09-17T15:01:15.792Z,93704.11
2022-09-17T15:03:42.086Z,93685.72
2022-09-17T15:06:08.427Z,93686.83
2022-09-17T15:08:34.762Z,93690.08
2022-09-17T15:11:01.103Z,93687.31
2022-09-17T15:13:27.446Z,93691.19
2022-09-17T15:15:53.821Z,93686.83
2022-09-17T15:18:20.185Z,93681.37
2022-09-17T15:20:46.530Z,93672.95
2022-09-17T15:23:12.869Z,93676.53
2022-09-17T15:25:39.204Z,93663.44
2022-09-17T15:28:05.543Z,93660.70
2022-09-17T15:30:31.889Z,93665.53
2022-09-17T15:32:58.228Z,93647.78
2022-09-17T15:35:24.563Z,93656.16
2022-09-17T15:38:18.600Z,93653.91
2022-09-17T15:40:17.338Z,93655.69
2022-09-17T15:42:43.576Z,93660.67
2022-09-17T15:45:09.912Z,93666.02
2022-09-17T15:47:36.278Z,93652.14
2022-09-17T15:50:02.715Z,93657.79
2022-09-17T15:52:29.001Z,93674.73
2022-09-17T15:54:55.348Z,93652.59
2022-09-17T15:57:21.682Z,93662.14
2022-09-17T15:59:48.021Z,93666.83
2022-09-17T16:02:14.437Z,93658.75
2022-09-17T16:04:40.695Z,93648.27
2022-09-17T16:07:07.033Z,93638.08
2022-09-17T16:09:33.372Z,93636.45
2022-09-17T16:11:59.717Z,93651.48
2022-09-17T16:14:26.057Z,93639.70
2022-09-17T16:16:52.393Z,93630.18
2022-09-17T16:19:18.729Z,93620.81
2022-09-17T16:21:45.073Z,93616.78
2022-09-17T16:24:11.510Z,93638.89
2022-09-17T16:26:37.840Z,93650.67
2022-09-17T16:29:04.188Z,93653.73
2022-09-17T16:31:30.622Z,93655.69
2022-09-17T16:33:56.902Z,93650.84
2022-09-17T16:36:23.232Z,93608.08
2022-09-17T16:38:49.578Z,93598.52
2022-09-17T16:41:15.923Z,93602.91
2022-09-17T16:43:42.266Z,93610.95
2022-09-17T16:46:08.670Z,93574.80
2022-09-17T16:48:34.941Z,93571.40
2022-09-17T16:51:01.280Z,93565.12
2022-09-17T16:53:27.620Z,93575.13
2022-09-17T16:55:53.983Z,93555.94
2022-09-17T16:58:20.328Z,93566.56
2022-09-17T17:00:46.748Z,93566.74
2022-09-17T17:03:13.103Z,93573.02
2022-09-17T17:05:39.359Z,93578.84
2022-09-17T17:10:50.985Z,93607.89
2022-09-17T17:13:17.330Z,93612.25
2022-09-17T17:15:43.722Z,93627.27
2022-09-17T17:18:10.028Z,93639.37
2022-09-17T17:20:36.409Z,93643.42
2022-09-17T17:23:02.742Z,93653.27
2022-09-17T17:25:29.048Z,93643.58
2022-09-17T17:27:55.402Z,93637.11
2022-09-17T17:30:21.750Z,93629.87
2022-09-17T17:32:48.100Z,93624.38
2022-09-17T17:35:14.449Z,93619.70
2022-09-17T17:37:40.793Z,93615.82
2022-09-17T17:40:07.227Z,93612.13
2022-09-17T17:42:33.498Z,93616.78
2022-09-17T17:44:59.841Z,93631.31
2022-09-17T17:47:26.186Z,93639.55
2022-09-17T17:49:52.541Z,93633.56
2022-09-17T17:52:18.874Z,93647.77
2022-09-17T17:54:45.255Z,93657.14
2022-09-17T17:57:11.593Z,93676.19
2022-09-17T17:59:37.942Z,93684.11
2022-09-17T18:02:04.447Z,93675.88
2022-09-17T18:04:30.630Z,93676.03
2022-09-17T18:06:56.968Z,93669.58
2022-09-17T18:09:23.333Z,93659.42
2022-09-17T18:11:49.672Z,93646.00
2022-09-17T18:14:16.028Z,93642.94
2022-09-17T18:16:42.370Z,93654.08
2022-09-17T18:19:08.717Z,93655.55
2022-09-17T18:21:35.053Z,93652.45
2022-09-17T18:24:01.390Z,93656.98
2022-09-17T18:26:27.794Z,93667.17
2022-09-17T18:28:54.132Z,93674.11
2022-09-17T18:31:20.520Z,93674.11
2022-09-17T18:33:46.823Z,93672.16
2022-09-17T18:36:13.184Z,93668.13
2022-09-17T18:38:39.572Z,93671.85
2022-09-17T18:41:05.885Z,93672.00
2022-09-17T18:43:32.231Z,93664.41
2022-09-17T18:45:58.563Z,93666.98
2022-09-17T18:48:24.929Z,93666.50
2022-09-17T18:50:52.475Z,93660.23
2022-09-17T18:53:17.644Z,93661.52
2022-09-17T18:55:43.982Z,93658.27
2022-09-17T18:58:10.330Z,93660.23
2022-09-17T19:00:36.719Z,93652.63
2022-09-17T19:03:05.885Z,93666.02
2022-09-17T19:05:32.225Z,93654.25
2022-09-17T19:07:58.574Z,93655.21
2022-09-17T19:10:24.921Z,93658.45
2022-09-17T19:12:51.268Z,93659.08
2022-09-17T19:15:17.598Z,93645.05
2022-09-17T19:17:43.980Z,93642.48
2022-09-17T19:20:10.345Z,93636.17
2022-09-17T19:22:36.696Z,93626.66
2022-09-17T19:25:03.037Z,93637.13
2022-09-17T19:27:29.394Z,93634.55
2022-09-17T19:29:55.736Z,93646.98
2022-09-17T19:32:22.087Z,93648.12
2022-09-17T19:34:48.437Z,93643.59
2022-09-17T19:37:14.782Z,93651.03
2022-09-17T19:39:41.147Z,93641.19
2022-09-17T19:42:07.489Z,93656.20
2022-09-17T19:44:33.868Z,93663.28
2022-09-17T19:47:00.204Z,93645.39
2022-09-17T19:49:26.553Z,93647.97
2022-09-17T19:51:52.906Z,93644.09
2022-09-17T19:54:19.249Z,93657.01
2022-09-17T19:56:45.698Z,93639.56
2022-09-17T19:59:12.078Z,93636.02
2022-09-17T20:01:38.468Z,93641.83
2022-09-17T20:04:04.775Z,93644.24
2022-09-17T20:06:31.119Z,93636.49
2022-09-17T20:08:57.465Z,93642.14
2022-09-17T20:11:23.801Z,93632.29
2022-09-17T20:13:50.140Z,93623.91
2022-09-17T20:16:16.507Z,93634.57
2022-09-17T20:18:42.820Z,93631.81
2022-09-17T20:21:09.166Z,93629.23
2022-09-17T20:23:35.516Z,93619.55
2022-09-17T20:26:01.854Z,93602.44
2022-09-17T20:28:28.194Z,93595.66
2022-09-17T20:30:54.588Z,93626.49
2022-09-17T20:33:24.095Z,93616.98
2022-09-17T20:35:47.261Z,93610.04
2022-09-17T20:40:39.940Z,93605.36
2022-09-17T20:43:06.290Z,93614.06
2022-09-17T20:45:32.633Z,93606.49
2022-09-17T20:47:58.973Z,93616.83
2022-09-17T20:50:25.310Z,93605.20
2022-09-17T20:52:51.653Z,93614.24
2022-09-17T20:55:17.999Z,93601.48
2022-09-17T20:57:44.347Z,93591.00
2022-09-17T21:00:10.690Z,93607.79
2022-09-17T21:02:37.027Z,93610.84
2022-09-17T21:05:03.389Z,93595.66
2022-09-17T21:07:29.734Z,93610.52
2022-09-17T21:09:56.071Z,93605.35
2022-09-17T21:12:27.378Z,93603.25
2022-09-17T21:14:48.799Z,93582.59
2022-09-17T21:17:15.145Z,93581.45
2022-09-17T21:19:41.477Z,93599.70
2022-09-17T21:22:07.825Z,93589.20
2022-09-17T21:24:34.170Z,93621.66
2022-09-17T21:27:00.519Z,93618.74
2022-09-17T21:29:26.865Z,93601.63
2022-09-17T21:31:53.258Z,93599.37
2022-09-17T21:34:19.562Z,93606.97
2022-09-17T21:36:45.939Z,93601.30
2022-09-17T21:39:12.289Z,93587.72
2022-09-17T21:41:42.324Z,93591.59
2022-09-17T21:44:04.978Z,93593.41
2022-09-17T21:46:31.359Z,93580.79
2022-09-17T21:48:57.669Z,93573.70
2022-09-17T21:51:24.025Z,93579.02
2022-09-17T21:53:50.379Z,93589.67
2022-09-17T21:56:16.724Z,93572.75
2022-09-17T21:58:43.073Z,93584.66
2022-09-17T22:01:09.415Z,93575.33
2022-09-17T22:03:35.752Z,93609.70
2022-09-17T22:06:02.099Z,93599.05
2022-09-17T22:08:28.463Z,93603.40
2022-09-17T22:10:54.794Z,93590.97
2022-09-17T22:13:21.140Z,93585.66
2022-09-17T22:15:47.527Z,93592.11
2022-09-17T22:18:13.825Z,93590.97
2022-09-17T22:20:40.181Z,93574.03
2022-09-17T22:23:06.530Z,93609.05
2022-09-17T22:25:32.883Z,93611.77
2022-09-17T22:28:19.936Z,93620.33
2022-09-17T22:30:25.573Z,93634.71
2022-09-17T22:32:51.909Z,93639.88
2022-09-17T22:35:18.266Z,93627.92
2022-09-17T22:37:44.616Z,93600.96
2022-09-17T22:40:10.996Z,93602.73
2022-09-17T22:42:37.312Z,93619.70
2022-09-17T22:45:03.701Z,93620.50
2022-09-17T22:47:30.042Z,93610.33
2022-09-17T22:49:56.393Z,93609.84
2022-09-17T22:52:22.744Z,93633.41
2022-09-17T22:54:49.093Z,93632.91
2022-09-17T22:57:15.436Z,93625.16
2022-09-17T22:59:41.776Z,93623.41
2022-09-17T23:02:08.191Z,93630.98
2022-09-17T23:04:34.482Z,93636.14
2022-09-17T23:07:00.827Z,93628.40
2022-09-17T23:09:27.178Z,93622.91
2022-09-17T23:11:53.531Z,93626.63
2022-09-17T23:14:19.877Z,93628.40
2022-09-17T23:16:46.221Z,93634.70
2022-09-17T23:19:12.560Z,93632.27
2022-09-17T23:21:38.913Z,93636.47
2022-09-17T23:24:05.288Z,93632.60
2022-09-17T23:26:31.623Z,93630.50
2022-09-17T23:29:01.237Z,93637.91
2022-09-17T23:31:24.372Z,93636.14
2022-09-17T23:33:50.704Z,93634.04
2022-09-17T23:36:17.033Z,93627.28
2022-09-17T23:38:43.373Z,93632.60
2022-09-17T23:41:09.719Z,93637.61
2022-09-17T23:43:36.057Z,93639.87
2022-09-17T23:46:02.418Z,93648.23
2022-09-17T23:48:28.744Z,93654.21
2022-09-17T23:50:55.085Z,93645.66
2022-09-17T23:53:21.432Z,93655.98
2022-09-17T23:55:47.773Z,93652.11
2022-09-17T23:58:14.119Z,93659.71
